Time;durP1;ratioP1;P1;durP2;ratioP2;P2;SDS_P1;SDS_P2;PMS_P1;PMS_P2;Temp;Humidity;BMP_temperature;BMP_pressure;BME280_temperature;BME280_humidity;BME280_pressure;Samples;Min_cycle;Max_cycle;Signal;HPM_P1;HPM_P2
2022/01/03 00:01:30;;;;;;;18.58;3.60;;;11.40;99.70;;;;;;6156691;23;20293;-85
2022/01/03 00:03:56;;;;;;;13.98;3.72;;;11.40;99.70;;;;;;6154569;23;20016;-85
2022/01/03 00:06:22;;;;;;;16.05;3.03;;;11.30;99.90;;;;;;6154661;23;20035;-85
2022/01/03 00:08:48;;;;;;;14.05;3.13;;;11.40;99.70;;;;;;6155210;23;20068;-85
2022/01/03 00:11:19;;;;;;;13.27;2.88;;;11.40;99.70;;;;;;6155125;23;20013;-84
2022/01/03 00:13:48;;;;;;;;;;;11.40;99.80;;;;;;6156199;23;20072;-85
2022/01/03 00:16:14;;;;;;;18.15;3.95;;;11.40;99.80;;;;;;6155104;23;19908;-84
2022/01/03 00:18:41;;;;;;;17.10;3.92;;;11.40;99.80;;;;;;6131241;23;20005;-85
2022/01/03 00:21:14;;;;;;;18.35;4.60;;;11.40;99.80;;;;;;6157215;23;20056;-84
2022/01/03 00:23:49;;;;;;;21.63;4.43;;;11.40;99.80;;;;;;6179339;23;20037;-85
2022/01/03 00:26:23;;;;;;;23.13;4.53;;;11.40;99.80;;;;;;6182043;23;20016;-81
2022/01/03 00:29:01;;;;;;;19.13;4.40;;;11.40;99.70;;;;;;6155961;23;19994;-85
2022/01/03 00:31:35;;;;;;;22.83;4.30;;;11.40;99.70;;;;;;6154509;23;20100;-84
2022/01/03 00:34:03;;;;;;;15.93;3.78;;;11.40;99.70;;;;;;6154358;23;20420;-85
2022/01/03 00:36:30;;;;;;;19.55;4.22;;;11.30;99.80;;;;;;6154776;23;20012;-84
2022/01/03 00:38:56;;;;;;;17.85;3.70;;;11.40;99.80;;;;;;6156775;23;20068;-85
2022/01/03 00:41:23;;;;;;;20.30;4.40;;;11.40;99.80;;;;;;6154245;23;20005;-85
2022/01/03 00:43:54;;;;;;;17.17;3.90;;;11.30;99.70;;;;;;6154125;23;20105;-84
2022/01/03 00:46:20;;;;;;;18.95;3.95;;;11.30;99.70;;;;;;6154367;23;20029;-85
2022/01/03 00:48:46;;;;;;;15.65;3.72;;;11.40;99.70;;;;;;6154709;23;20324;-85
2022/01/03 00:51:14;;;;;;;24.30;4.05;;;11.40;99.70;;;;;;6154177;23;20006;-85
2022/01/03 00:53:41;;;;;;;19.55;5.00;;;11.40;99.80;;;;;;6154439;23;20328;-85
2022/01/03 00:56:13;;;;;;;22.02;4.38;;;11.30;99.70;;;;;;6154248;23;20416;-85
2022/01/03 00:59:00;;;;;;;18.23;4.07;;;11.30;99.60;;;;;;6154431;23;20006;-84
2022/01/03 01:01:31;;;;;;;22.00;5.38;;;11.30;99.60;;;;;;6153969;23;20019;-84
2022/01/03 01:03:59;;;;;;;23.23;5.50;;;11.30;99.60;;;;;;6154431;23;20011;-85
2022/01/03 01:06:25;;;;;;;23.73;4.55;;;11.30;99.60;;;;;;6155667;23;20014;-85
2022/01/03 01:08:56;;;;;;;18.35;4.57;;;11.30;99.60;;;;;;6154001;23;20305;-85
2022/01/03 01:11:27;;;;;;;18.53;4.37;;;11.30;99.70;;;;;;6154081;23;20013;-85
2022/01/03 01:13:53;;;;;;;17.88;3.85;;;11.30;99.70;;;;;;6130654;23;20332;-85
2022/01/03 01:16:22;;;;;;;16.27;3.78;;;11.30;99.70;;;;;;6153988;23;20009;-85
2022/01/03 01:18:51;;;;;;;23.42;4.85;;;11.30;99.80;;;;;;6154350;23;19997;-85
2022/01/03 01:21:18;;;;;;;18.40;4.60;;;11.30;99.60;;;;;;6153952;23;20010;-84
2022/01/03 01:23:44;;;;;;;23.45;4.53;;;11.30;99.60;;;;;;6154270;23;20048;-84
2022/01/03 01:29:12;;;;;;;25.88;4.80;;;11.30;99.60;;;;;;6155784;23;20105;-85
2022/01/03 01:31:45;;;;;;;21.02;4.95;;;11.30;99.50;;;;;;6153926;23;20451;-84
2022/01/03 01:34:21;;;;;;;17.33;4.15;;;11.20;99.50;;;;;;6155871;23;20001;-85
2022/01/03 01:36:55;;;;;;;22.30;4.63;;;11.20;99.40;;;;;;6156205;23;20111;-84
2022/01/03 01:39:22;;;;;;;20.88;4.63;;;11.20;99.40;;;;;;6156246;23;20005;-85
2022/01/03 01:41:52;;;;;;;17.33;3.80;;;11.20;99.30;;;;;;6156564;23;20028;-85
2022/01/03 01:44:19;;;;;;;21.92;4.85;;;11.20;99.40;;;;;;6156251;23;20056;-86
2022/01/03 01:46:53;;;;;;;23.30;4.53;;;11.20;99.40;;;;;;6156280;23;20001;-86
2022/01/03 01:49:22;;;;;;;16.15;3.85;;;11.20;99.40;;;;;;6156793;23;19997;-84
2022/01/03 01:51:57;;;;;;;23.83;4.35;;;11.20;99.40;;;;;;6156489;23;20006;-85
2022/01/03 01:54:36;;;;;;;20.88;3.92;;;11.20;99.40;;;;;;6156847;23;20044;-85
2022/01/03 01:57:18;;;;;;;18.73;5.22;;;11.20;99.40;;;;;;6171573;23;19982;-85
2022/01/03 02:00:04;;;;;;;19.92;4.75;;;11.10;99.30;;;;;;6183749;23;20053;-85
2022/01/03 02:02:36;;;;;;;19.63;3.97;;;11.20;99.40;;;;;;6184121;23;20085;-84
2022/01/03 02:05:18;;;;;;;16.80;4.07;;;11.20;99.50;;;;;;6183425;23;20016;-84
2022/01/03 02:08:14;;;;;;;24.48;4.57;;;11.20;99.40;;;;;;6164060;23;20014;-85
2022/01/03 02:10:48;;;;;;;19.15;4.10;;;11.20;99.50;;;;;;6156896;23;20009;-85
2022/01/03 02:13:21;;;;;;;15.95;4.32;;;11.20;99.40;;;;;;6155968;23;20008;-85
2022/01/03 02:15:57;;;;;;;18.02;4.32;;;11.20;99.40;;;;;;6132148;23;20005;-85
2022/01/03 02:18:25;;;;;;;22.45;4.25;;;11.20;99.40;;;;;;6155452;23;19998;-85
2022/01/03 02:20:52;;;;;;;23.85;5.55;;;11.20;99.30;;;;;;6155331;23;20088;-85
2022/01/03 02:23:20;;;;;;;30.55;6.72;;;11.20;99.30;;;;;;6155264;23;20009;-84
2022/01/03 02:25:45;;;;;;;20.05;4.93;;;11.20;99.40;;;;;;6155579;23;20289;-85
2022/01/03 02:28:20;;;;;;;20.27;4.53;;;11.20;99.40;;;;;;6155328;23;20080;-85
2022/01/03 02:30:49;;;;;;;23.00;4.68;;;11.20;99.40;;;;;;6155741;23;20447;-85
2022/01/03 02:33:18;;;;;;;20.95;5.10;;;11.20;99.40;;;;;;6155443;23;20017;-85
2022/01/03 02:35:47;;;;;;;18.13;4.50;;;11.20;99.40;;;;;;6156002;23;20001;-85
2022/01/03 02:38:14;;;;;;;18.58;4.57;;;11.20;99.40;;;;;;6155328;23;20017;-85
2022/01/03 02:40:39;;;;;;;25.13;4.68;;;11.20;99.50;;;;;;6155197;23;20005;-84
2022/01/03 02:43:07;;;;;;;20.05;4.35;;;11.20;99.40;;;;;;6157036;23;20013;-85
2022/01/03 02:45:34;;;;;;;19.13;4.30;;;11.10;99.50;;;;;;6155297;23;20076;-85
2022/01/03 02:48:07;;;;;;;16.77;3.95;;;11.10;99.40;;;;;;6155173;23;20005;-85
2022/01/03 02:50:39;;;;;;;18.23;4.28;;;11.20;99.50;;;;;;6156170;23;20066;-85
2022/01/03 02:53:05;;;;;;;25.17;5.38;;;11.10;99.40;;;;;;6155469;23;20479;-85
2022/01/03 02:55:31;;;;;;;18.55;4.78;;;11.10;99.40;;;;;;6154921;23;20029;-85
2022/01/03 02:58:05;;;;;;;22.05;4.82;;;11.10;99.40;;;;;;6154784;23;20005;-85
2022/01/03 03:00:33;;;;;;;26.98;5.05;;;11.10;99.30;;;;;;6156801;23;20408;-85
2022/01/03 03:02:59;;;;;;;19.95;4.72;;;11.10;99.30;;;;;;6155569;23;20006;-86
2022/01/03 03:05:25;;;;;;;16.38;3.65;;;11.10;99.30;;;;;;6154798;23;20024;-85
2022/01/03 03:07:53;;;;;;;21.13;4.45;;;11.10;99.40;;;;;;6154390;23;20014;-85
2022/01/03 03:10:24;;;;;;;22.67;4.38;;;11.10;99.30;;;;;;6154967;23;20005;-85
2022/01/03 03:12:50;;;;;;;;;;;11.10;99.30;;;;;;6156190;23;20012;-85
2022/01/03 03:15:17;;;;;;;19.58;3.42;;;11.10;99.30;;;;;;6155194;23;19935;-85
2022/01/03 03:17:48;;;;;;;19.15;3.70;;;11.10;99.40;;;;;;6129649;23;20012;-85
2022/01/03 03:20:26;;;;;;;17.83;4.15;;;11.10;99.40;;;;;;6131783;23;20013;-86
2022/01/03 03:23:03;;;;;;;20.50;4.18;;;11.10;99.40;;;;;;6155434;23;20002;-85
2022/01/03 03:25:32;;;;;;;16.83;3.67;;;11.10;99.40;;;;;;6155455;23;20013;-86
2022/01/03 03:28:02;;;;;;;20.13;4.20;;;11.10;99.30;;;;;;6155714;23;20416;-85
2022/01/03 03:30:41;;;;;;;19.25;4.47;;;11.10;99.40;;;;;;6155705;23;20428;-85
2022/01/03 03:33:29;;;;;;;21.83;4.43;;;11.10;99.40;;;;;;6156335;23;20008;-85
2022/01/03 03:35:56;;;;;;;22.75;4.47;;;11.10;99.40;;;;;;6166862;23;20072;-85
2022/01/03 03:38:25;;;;;;;21.50;4.72;;;11.10;99.30;;;;;;6182905;23;20002;-88
2022/01/03 03:41:05;;;;;;;20.20;4.28;;;11.10;99.20;;;;;;6182835;23;20025;-84
2022/01/03 03:43:36;;;;;;;15.23;3.63;;;11.10;99.30;;;;;;6157841;23;19996;-85
2022/01/03 03:46:04;;;;;;;20.45;4.35;;;11.10;99.20;;;;;;6158042;23;19989;-83
2022/01/03 03:48:34;;;;;;;17.70;4.18;;;11.10;99.30;;;;;;6149624;23;20009;-85
2022/01/03 03:51:05;;;;;;;18.50;4.15;;;11.10;99.30;;;;;;6131272;23;20014;-85
2022/01/03 03:53:37;;;;;;;16.92;4.13;;;11.10;99.30;;;;;;6130302;23;20089;-84
2022/01/03 03:56:03;;;;;;;17.55;3.83;;;11.10;99.30;;;;;;6131807;23;20012;-85
2022/01/03 03:58:29;;;;;;;18.02;4.18;;;11.10;99.30;;;;;;6154819;23;20001;-85
2022/01/03 04:00:59;;;;;;;19.15;4.35;;;11.10;99.20;;;;;;6154676;23;20009;-85
2022/01/03 04:03:26;;;;;;;21.33;4.20;;;11.10;99.20;;;;;;6156043;23;20009;-84
2022/01/03 04:05:55;;;;;;;27.65;4.63;;;11.10;99.20;;;;;;6130558;23;20005;-85
2022/01/03 04:08:20;;;;;;;21.33;5.30;;;11.10;99.30;;;;;;6154646;23;20001;-85
2022/01/03 04:10:46;;;;;;;21.98;4.82;;;11.10;99.20;;;;;;6156359;23;20044;-84
2022/01/03 04:13:12;;;;;;;24.77;5.50;;;11.00;99.10;;;;;;6154763;23;20001;-85
2022/01/03 04:15:37;;;;;;;23.67;5.13;;;11.00;99.10;;;;;;6154381;23;20133;-85
2022/01/03 04:18:06;;;;;;;21.17;4.88;;;11.00;99.10;;;;;;6154929;23;20001;-84
2022/01/03 04:20:32;;;;;;;17.55;5.20;;;11.00;99.20;;;;;;6154039;23;20506;-85
2022/01/03 04:23:00;;;;;;;16.45;4.40;;;11.00;99.10;;;;;;6154598;23;20005;-85
2022/01/03 04:25:26;;;;;;;17.20;4.28;;;11.00;99.20;;;;;;6154512;23;20008;-85
2022/01/03 04:27:52;;;;;;;25.15;5.55;;;11.00;99.10;;;;;;6154665;23;20029;-85
2022/01/03 04:30:18;;;;;;;20.58;5.70;;;11.00;99.20;;;;;;6154834;23;20009;-85
2022/01/03 04:32:50;;;;;;;24.40;5.00;;;11.00;99.20;;;;;;6154212;23;20084;-85
2022/01/03 04:35:19;;;;;;;21.17;5.82;;;11.00;99.20;;;;;;6156428;23;20028;-85
2022/01/03 04:37:47;;;;;;;18.70;4.85;;;11.10;99.20;;;;;;6129752;23;20010;-85
2022/01/03 04:40:13;;;;;;;25.23;5.57;;;11.10;99.20;;;;;;6154445;23;20010;-84
2022/01/03 04:42:39;;;;;;;19.13;4.88;;;11.10;99.20;;;;;;6155359;23;20440;-85
2022/01/03 04:45:05;;;;;;;23.38;5.53;;;11.10;99.10;;;;;;6154751;23;20088;-85
2022/01/03 04:47:31;;;;;;;22.40;5.03;;;11.10;99.10;;;;;;6153821;23;20001;-85
2022/01/03 04:49:57;;;;;;;18.52;4.53;;;11.10;99.10;;;;;;6155060;23;20444;-85
2022/01/03 04:52:23;;;;;;;26.20;5.88;;;11.10;99.10;;;;;;6129625;23;20041;-85
2022/01/03 04:54:51;;;;;;;21.60;5.93;;;11.00;99.00;;;;;;6153861;23;20002;-85
2022/01/03 04:57:17;;;;;;;23.05;6.40;;;11.00;99.10;;;;;;6154858;23;20005;-85
2022/01/03 04:59:43;;;;;;;27.50;6.35;;;11.10;99.40;;;;;;6154631;23;20324;-85
2022/01/03 05:02:11;;;;;;;21.52;5.30;;;11.10;99.10;;;;;;6154647;23;20014;-85
2022/01/03 05:04:37;;;;;;;22.88;5.47;;;11.10;99.10;;;;;;6154623;23;20033;-85
2022/01/03 05:07:03;;;;;;;31.35;6.45;;;11.00;98.90;;;;;;6153553;23;20013;-85
2022/01/03 05:09:29;;;;;;;23.05;5.68;;;11.00;99.00;;;;;;6154178;23;20084;-85
2022/01/03 05:11:55;;;;;;;23.40;5.70;;;11.00;99.00;;;;;;6155301;23;20021;-85
2022/01/03 05:14:24;;;;;;;27.40;5.07;;;11.00;98.90;;;;;;6159279;23;19997;-85
2022/01/03 05:16:52;;;;;;;26.33;5.53;;;11.00;99.00;;;;;;6182261;23;20010;-85
2022/01/03 05:19:17;;;;;;;22.13;4.78;;;11.00;99.00;;;;;;6182500;23;20002;-84
2022/01/03 05:21:46;;;;;;;20.88;4.32;;;11.00;99.10;;;;;;6181910;23;20013;-86
2022/01/03 05:24:15;;;;;;;24.05;4.97;;;11.00;99.10;;;;;;6179358;23;20025;-85
2022/01/03 05:26:41;;;;;;;24.70;5.28;;;11.00;99.10;;;;;;6158340;23;20001;-85
2022/01/03 05:29:06;;;;;;;22.35;5.03;;;11.10;99.10;;;;;;6154577;23;20092;-85
2022/01/03 05:31:32;;;;;;;20.55;4.95;;;11.10;99.10;;;;;;6154436;23;20005;-84
2022/01/03 05:34:00;;;;;;;22.05;5.82;;;11.10;99.00;;;;;;6154292;23;19994;-85
2022/01/03 05:36:30;;;;;;;21.23;4.82;;;11.10;99.10;;;;;;6154258;23;20301;-85
2022/01/03 05:38:56;;;;;;;18.70;4.88;;;11.10;99.10;;;;;;6154423;23;20006;-85
2022/01/03 05:41:21;;;;;;;21.42;5.22;;;11.10;99.00;;;;;;6154092;23;20392;-84
2022/01/03 05:43:49;;;;;;;22.40;5.25;;;11.10;99.00;;;;;;6153275;23;20519;-85
2022/01/03 05:46:17;;;;;;;21.73;4.43;;;11.10;99.00;;;;;;6153581;23;20009;-85
2022/01/03 05:48:43;;;;;;;24.17;4.85;;;11.10;99.00;;;;;;6153876;23;20423;-85
2022/01/03 05:51:08;;;;;;;24.65;4.80;;;11.10;99.00;;;;;;6154273;23;20012;-85
2022/01/03 05:53:34;;;;;;;23.08;4.80;;;11.10;98.80;;;;;;6153898;23;20001;-85
2022/01/03 05:56:01;;;;;;;19.33;4.72;;;11.20;99.00;;;;;;6153801;23;20004;-85
2022/01/03 05:58:27;;;;;;;27.58;5.50;;;11.10;98.90;;;;;;6154136;23;20353;-85
2022/01/03 06:00:55;;;;;;;21.90;4.97;;;11.10;98.80;;;;;;6153756;23;20202;-85
2022/01/03 06:03:23;;;;;;;16.70;4.20;;;11.10;98.90;;;;;;6154117;23;20328;-85
2022/01/03 06:08:23;;;;;;;16.02;4.40;;;11.10;98.90;;;;;;6167501;23;20017;-85
2022/01/03 06:10:49;;;;;;;23.38;4.30;;;11.20;98.90;;;;;;6155563;23;20072;-85
2022/01/03 06:13:16;;;;;;;22.52;5.25;;;11.20;99.00;;;;;;6130905;23;20364;-85
2022/01/03 06:15:45;;;;;;;24.92;5.22;;;11.20;98.80;;;;;;6155322;23;20001;-85
2022/01/03 06:18:15;;;;;;;17.25;4.50;;;11.20;98.80;;;;;;6155600;23;20012;-85
2022/01/03 06:20:44;;;;;;;21.27;4.63;;;11.10;98.80;;;;;;6155314;23;20009;-85
2022/01/03 06:23:11;;;;;;;23.30;4.88;;;11.20;98.90;;;;;;6155774;23;20055;-86
2022/01/03 06:25:38;;;;;;;21.77;4.75;;;11.10;98.70;;;;;;6155638;23;20012;-86
2022/01/03 06:28:07;;;;;;;19.25;3.67;;;11.10;98.80;;;;;;6155524;23;20008;-85
2022/01/03 06:30:37;;;;;;;18.90;4.75;;;11.20;98.80;;;;;;6131856;23;20009;-86
2022/01/03 06:33:07;;;;;;;19.52;3.90;;;11.20;98.80;;;;;;6154260;23;20013;-85
2022/01/03 06:35:33;;;;;;;18.48;4.25;;;11.10;98.80;;;;;;6155431;23;20058;-84
2022/01/03 06:38:00;;;;;;;20.70;4.88;;;11.20;98.80;;;;;;6155576;23;20029;-85
2022/01/03 06:40:26;;;;;;;21.73;4.63;;;11.10;98.70;;;;;;6155522;23;20420;-85
2022/01/03 06:42:58;;;;;;;19.35;4.13;;;11.20;98.70;;;;;;6155750;23;19997;-85
2022/01/03 06:45:24;;;;;;;15.52;4.05;;;11.10;98.70;;;;;;6155649;23;20005;-85
2022/01/03 06:47:51;;;;;;;16.92;4.25;;;11.20;98.80;;;;;;6131661;23;20432;-85
2022/01/03 06:50:16;;;;;;;23.73;4.22;;;11.20;98.80;;;;;;6156121;23;20040;-85
2022/01/03 06:52:47;;;;;;;18.40;4.28;;;11.20;98.60;;;;;;6156847;23;20002;-85
2022/01/03 06:55:13;;;;;;;15.80;5.03;;;11.20;98.60;;;;;;6151027;23;19986;-86
2022/01/03 06:57:41;;;;;;;19.15;4.57;;;11.20;98.70;;;;;;6183475;23;19996;-85
2022/01/03 07:00:07;;;;;;;21.92;7.45;;;11.20;98.60;;;;;;6159212;23;20017;-84
2022/01/03 07:02:33;;;;;;;22.40;6.50;;;11.20;98.50;;;;;;6157621;23;20000;-84
2022/01/03 07:04:59;;;;;;;19.65;4.70;;;11.20;98.40;;;;;;6162920;23;20001;-85
2022/01/03 07:07:27;;;;;;;15.43;4.13;;;11.20;98.40;;;;;;6155671;23;20020;-85
2022/01/03 07:09:58;;;;;;;18.33;4.43;;;11.20;98.40;;;;;;6155439;23;20013;-92
2022/01/03 07:12:23;;;;;;;17.48;3.92;;;11.20;98.40;;;;;;6107270;23;20010;-85
2022/01/03 07:20:10;;;;;;;;;;;;;;;;;;;;;
2022/01/03 07:22:40;;;;;;;19.23;3.80;;;11.10;98.30;;;;;;6156339;23;20072;-86
2022/01/03 07:25:09;;;;;;;22.15;4.95;;;11.20;98.40;;;;;;6130147;23;20009;-87
2022/01/03 07:27:37;;;;;;;15.73;4.22;;;11.20;98.40;;;;;;6155190;23;20053;-85
2022/01/03 07:30:07;;;;;;;14.20;3.70;;;11.20;98.30;;;;;;6155444;23;20013;-85
2022/01/03 07:32:33;;;;;;;16.45;4.57;;;11.20;98.40;;;;;;6130660;23;20009;-85
2022/01/03 07:35:04;;;;;;;14.85;4.03;;;11.20;98.40;;;;;;6155735;23;20003;-86
2022/01/03 07:37:33;;;;;;;19.45;4.30;;;11.20;98.30;;;;;;6154857;23;20010;-86
2022/01/03 07:40:10;;;;;;;16.23;4.38;;;11.20;98.30;;;;;;6154158;23;20339;-85
2022/01/03 07:42:40;;;;;;;20.40;4.95;;;11.20;98.30;;;;;;6154898;23;20315;-85
2022/01/03 07:45:07;;;;;;;18.83;3.60;;;11.20;98.30;;;;;;6154505;23;20076;-85
2022/01/03 07:47:47;;;;;;;16.40;3.80;;;11.20;98.30;;;;;;6154911;23;20370;-85
2022/01/03 07:50:15;;;;;;;17.50;4.38;;;11.20;98.40;;;;;;6130507;23;20451;-86
2022/01/03 07:52:49;;;;;;;18.98;4.15;;;11.20;98.40;;;;;;6154736;23;20009;-85
2022/01/03 07:55:19;;;;;;;22.73;4.07;;;11.20;98.40;;;;;;6130445;23;20428;-86
2022/01/03 07:57:48;;;;;;;19.70;4.22;;;11.20;98.30;;;;;;6154779;23;20064;-85
2022/01/03 08:00:20;;;;;;;19.58;3.78;;;11.20;98.30;;;;;;6129277;23;20073;-85
2022/01/03 08:02:48;;;;;;;21.17;4.30;;;11.20;98.30;;;;;;6130409;23;20009;-85
2022/01/03 08:05:15;;;;;;;22.25;4.70;;;11.20;98.40;;;;;;6155107;23;20014;-86
2022/01/03 08:07:45;;;;;;;20.42;4.47;;;11.20;98.40;;;;;;6155399;23;20018;-85
2022/01/03 08:10:15;;;;;;;10.43;3.20;;;11.20;98.40;;;;;;6155233;23;20013;-86
2022/01/03 08:12:44;;;;;;;18.70;4.07;;;11.30;98.50;;;;;;6155723;23;20428;-86
2022/01/03 08:15:10;;;;;;;13.32;3.72;;;11.30;98.50;;;;;;6131163;23;20454;-86
2022/01/03 08:17:39;;;;;;;19.67;4.40;;;11.30;98.40;;;;;;6155208;23;20033;-85
2022/01/03 08:20:05;;;;;;;15.00;3.80;;;11.30;98.30;;;;;;6155064;23;20020;-85
2022/01/03 08:22:31;;;;;;;16.42;4.15;;;11.30;98.30;;;;;;6130582;23;20093;-85
2022/01/03 08:24:57;;;;;;;14.80;3.60;;;11.30;98.30;;;;;;6130464;23;20006;-86
2022/01/03 08:27:38;;;;;;;21.30;4.35;;;11.20;98.30;;;;;;6155434;23;20006;-87
2022/01/03 08:30:10;;;;;;;16.52;3.92;;;11.20;98.30;;;;;;6133983;23;20010;-88
2022/01/03 08:32:36;;;;;;;19.83;5.13;;;11.20;98.30;;;;;;6132165;23;20008;-87
2022/01/03 08:35:01;;;;;;;14.25;3.65;;;11.20;98.30;;;;;;6173350;23;20038;-87
2022/01/03 08:37:35;;;;;;;17.27;4.15;;;11.20;98.30;;;;;;6183179;23;19993;-91
2022/01/03 08:40:06;;;;;;;14.43;4.00;;;11.30;98.30;;;;;;6157446;23;19998;-87
2022/01/03 08:42:37;;;;;;;18.52;4.43;;;11.30;98.20;;;;;;6182302;23;20006;-84
2022/01/03 08:45:12;;;;;;;16.55;3.72;;;11.30;98.10;;;;;;6171800;23;20009;-87
2022/01/03 08:47:41;;;;;;;14.02;3.90;;;11.20;98.20;;;;;;6155585;23;20052;-86
2022/01/03 08:53:26;;;;;;;17.77;5.15;;;11.20;98.10;;;;;;6133283;23;20052;-89
2022/01/03 08:56:01;;;;;;;14.05;4.13;;;11.20;98.20;;;;;;6157146;23;20080;-89
2022/01/03 08:59:06;;;;;;;18.02;5.10;;;11.20;98.20;;;;;;6155558;23;20033;-91
2022/01/03 09:01:50;;;;;;;;;;;;;;;;;;;;;
2022/01/03 09:04:16;;;;;;;20.40;4.55;;;11.20;98.30;;;;;;6155659;23;20391;-89
2022/01/03 09:06:58;;;;;;;;;;;;;;;;;;;;;
2022/01/03 09:09:29;;;;;;;19.33;4.00;;;11.30;98.20;;;;;;6157333;23;20080;-90
2022/01/03 09:12:09;;;;;;;16.13;3.90;;;11.30;98.20;;;;;;6155742;23;20438;-90
2022/01/03 09:15:05;;;;;;;;;;;;;;;;;;;;;
2022/01/03 09:18:18;;;;;;;17.27;4.18;;;11.30;98.20;;;;;;6156315;23;20081;-89
2022/01/03 09:20:54;;;;;;;18.42;3.85;;;11.30;98.00;;;;;;6123629;23;20096;-89
2022/01/03 09:29:13;;;;;;;18.88;4.45;;;11.30;98.00;;;;;;6156586;23;20016;-88
2022/01/03 09:31:39;;;;;;;15.50;3.90;;;11.40;98.00;;;;;;6155563;23;20006;-89
2022/01/03 09:34:20;;;;;;;;;;;;;;;;;;;;;
2022/01/03 09:37:22;;;;;;;;;;;;;;;;;;;;;
2022/01/03 09:39:59;;;;;;;19.35;4.57;;;11.30;97.80;;;;;;6038009;23;20102;-89
2022/01/03 09:43:01;;;;;;;20.00;4.22;;;11.30;97.80;;;;;;6154432;23;20085;-89
2022/01/03 09:45:59;;;;;;;19.30;4.30;;;11.30;97.90;;;;;;6154919;23;20001;-90
2022/01/03 09:48:27;;;;;;;18.05;4.20;;;11.30;97.80;;;;;;6155237;23;19997;-89
2022/01/03 09:51:04;;;;;;;19.63;3.97;;;11.20;97.80;;;;;;6155597;23;20010;-89
2022/01/03 09:54:22;;;;;;;;;;;;;;;;;;;;;
2022/01/03 09:56:46;;;;;;;20.67;5.28;;;11.30;97.80;;;;;;6153807;23;20013;-90
2022/01/03 09:59:36;;;;;;;18.90;3.88;;;11.20;97.80;;;;;;6157288;23;20046;-88
2022/01/03 10:02:15;;;;;;;17.98;3.85;;;11.20;97.90;;;;;;6157525;23;20026;-90
2022/01/03 10:05:19;;;;;;;18.65;4.55;;;11.20;97.90;;;;;;6134843;23;20001;-89
2022/01/03 10:07:57;;;;;;;13.98;3.85;;;11.30;97.90;;;;;;6152298;23;20452;-88
2022/01/03 10:10:37;;;;;;;;;;;;;;;;;;;;;
2022/01/03 10:13:15;;;;;;;;;;;;;;;;;;;;;
2022/01/03 10:15:44;;;;;;;18.55;4.70;;;11.30;97.80;;;;;;6178174;23;19993;-88
2022/01/03 10:18:46;;;;;;;15.05;4.40;;;11.30;97.80;;;;;;6183671;23;20017;-88
2022/01/03 10:21:31;;;;;;;13.23;3.75;;;11.30;97.80;;;;;;6183182;23;20053;-89
2022/01/03 10:24:27;;;;;;;15.82;4.68;;;11.40;97.80;;;;;;6180942;23;19989;-87
2022/01/03 10:30:11;;;;;;;15.98;4.07;;;11.30;97.70;;;;;;6146596;23;20005;-90
2022/01/03 10:33:03;;;;;;;14.23;4.15;;;11.30;97.60;;;;;;6125140;23;20431;-89
2022/01/03 10:35:40;;;;;;;21.58;4.70;;;11.30;97.50;;;;;;6133606;23;20002;-89
2022/01/03 10:38:21;;;;;;;;;;;;;;;;;;;;;
2022/01/03 10:41:24;;;;;;;13.20;3.92;;;11.30;97.50;;;;;;6158015;23;20088;-89
2022/01/03 10:44:08;;;;;;;18.13;4.05;;;11.30;97.50;;;;;;6157221;23;20331;-90
2022/01/03 10:46:54;;;;;;;19.00;4.68;;;11.30;97.60;;;;;;6134214;23;20014;-90
2022/01/03 10:49:26;;;;;;;15.13;4.20;;;11.40;97.60;;;;;;6156219;23;20009;-89
2022/01/03 10:52:40;;;;;;;;;;;;;;;;;;;;;
2022/01/03 10:55:17;;;;;;;19.58;5.00;;;11.40;97.60;;;;;;6157914;23;20531;-89
2022/01/03 11:01:48;;;;;;;;;;;;;;;;;;;;;
2022/01/03 11:10:52;;;;;;;17.45;4.57;;;11.50;97.50;;;;;;6108534;23;19916;-90
2022/01/03 11:13:36;;;;;;;;;;;;;;;;;;;;;
2022/01/03 11:16:40;;;;;;;;;;;;;;;;;;;;;
2022/01/03 11:19:11;;;;;;;20.58;5.63;;;11.50;97.50;;;;;;6147549;23;20072;-85
2022/01/03 11:21:44;;;;;;;16.52;4.63;;;11.50;97.50;;;;;;6132273;23;20018;-85
2022/01/03 11:24:13;;;;;;;16.23;4.35;;;11.50;97.60;;;;;;6155163;23;20065;-86
2022/01/03 11:26:46;;;;;;;16.38;4.50;;;11.60;97.60;;;;;;6155329;23;20005;-86
2022/01/03 11:29:16;;;;;;;18.08;4.22;;;11.60;97.60;;;;;;6155427;23;19998;-86
2022/01/03 11:31:49;;;;;;;17.70;4.47;;;11.70;97.60;;;;;;6154688;23;20005;-85
2022/01/03 11:34:23;;;;;;;17.20;4.45;;;11.80;97.50;;;;;;6157124;23;20057;-86
2022/01/03 11:37:12;;;;;;;20.00;4.25;;;11.80;97.50;;;;;;6156533;23;20002;-87
2022/01/03 11:39:48;;;;;;;21.52;6.78;;;11.80;97.40;;;;;;6156051;23;20080;-87
2022/01/03 11:42:16;;;;;;;15.93;4.88;;;11.80;97.40;;;;;;6156541;23;20328;-87
2022/01/03 11:44:47;;;;;;;18.83;4.13;;;11.90;97.30;;;;;;6155174;23;20029;-86
2022/01/03 11:47:14;;;;;;;17.00;4.07;;;11.90;97.30;;;;;;6155862;23;20084;-86
2022/01/03 11:49:51;;;;;;;16.63;4.05;;;11.90;97.20;;;;;;6155486;23;20005;-85
2022/01/03 11:52:23;;;;;;;22.67;4.55;;;11.90;97.20;;;;;;6155487;23;20010;-85
2022/01/03 11:54:52;;;;;;;14.52;3.53;;;11.90;97.10;;;;;;6156002;23;19998;-85
2022/01/03 12:06:01;;;;;;;17.15;4.13;;;12.00;97.10;;;;;;6183268;23;20020;-84
2022/01/03 12:08:39;;;;;;;16.52;4.15;;;11.90;97.10;;;;;;6157526;23;20013;-85
2022/01/03 12:11:29;;;;;;;17.17;4.18;;;11.90;97.20;;;;;;6161326;23;20067;-86
2022/01/03 12:14:28;;;;;;;17.60;4.32;;;11.90;97.30;;;;;;6157993;23;20003;-85
2022/01/03 12:17:04;;;;;;;19.73;4.30;;;12.00;97.30;;;;;;6154022;23;20002;-85
2022/01/03 12:20:12;;;;;;;15.85;3.42;;;11.90;97.20;;;;;;6130097;23;20036;-88
2022/01/03 12:23:09;;;;;;;15.75;3.72;;;11.90;97.30;;;;;;6144752;23;20021;-88
2022/01/03 12:25:36;;;;;;;15.50;3.85;;;12.00;97.40;;;;;;6126180;23;20060;-86
2022/01/03 12:28:06;;;;;;;20.42;4.78;;;12.00;97.40;;;;;;6154356;23;20002;-86
2022/01/03 12:30:36;;;;;;;14.85;4.00;;;11.90;97.20;;;;;;6154182;23;20486;-87
2022/01/03 12:33:08;;;;;;;16.58;4.35;;;11.90;97.20;;;;;;6130178;23;20012;-86
2022/01/03 12:35:40;;;;;;;20.27;4.82;;;11.90;97.20;;;;;;6154280;23;20040;-86
2022/01/03 12:38:08;;;;;;;18.15;4.43;;;11.90;97.20;;;;;;6154708;23;20060;-85
2022/01/03 12:40:48;;;;;;;18.10;4.30;;;11.80;97.30;;;;;;6153945;23;20010;-87
2022/01/03 12:43:46;;;;;;;24.15;9.75;;;11.80;97.40;;;;;;6154935;23;20417;-89
2022/01/03 12:46:20;;;;;;;20.40;5.28;;;11.80;97.60;;;;;;6153443;23;20010;-86
2022/01/03 12:48:47;;;;;;;13.77;5.10;;;11.90;97.60;;;;;;6154100;23;20033;-86
2022/01/03 12:51:15;;;;;;;11.55;3.38;;;11.90;97.60;;;;;;6155053;23;20109;-89
2022/01/03 12:53:49;;;;;;;13.98;3.78;;;11.90;97.60;;;;;;6154138;23;19998;-87
2022/01/03 12:56:26;;;;;;;17.35;4.43;;;11.90;97.60;;;;;;6154766;23;20008;-85
2022/01/03 12:59:03;;;;;;;17.98;4.07;;;11.90;97.50;;;;;;6154712;23;20060;-86
2022/01/03 13:01:30;;;;;;;13.95;3.55;;;11.80;97.40;;;;;;6154129;23;20060;-86
2022/01/03 13:04:18;;;;;;;9.77;3.17;;;11.80;97.40;;;;;;6129459;23;20012;-86
2022/01/03 13:06:47;;;;;;;13.82;4.03;;;11.80;97.40;;;;;;6154128;23;20005;-86
2022/01/03 13:09:13;;;;;;;17.08;3.75;;;11.80;97.30;;;;;;6154155;23;20041;-86
2022/01/03 13:11:50;;;;;;;14.07;3.45;;;11.80;97.30;;;;;;6153585;23;20086;-86
2022/01/03 13:14:22;;;;;;;13.68;3.10;;;11.80;97.30;;;;;;6154731;23;20002;-86
2022/01/03 13:17:09;;;;;;;12.15;3.85;;;11.80;97.20;;;;;;6154259;23;19998;-86
2022/01/03 13:19:36;;;;;;;9.70;2.67;;;11.80;97.30;;;;;;6154394;23;20006;-86
2022/01/03 13:22:09;;;;;;;16.77;3.70;;;11.80;97.20;;;;;;6154638;23;20307;-86
2022/01/03 13:24:40;;;;;;;15.10;3.30;;;11.80;97.20;;;;;;6154701;23;20415;-86
2022/01/03 13:27:07;;;;;;;;;;;11.80;97.00;;;;;;6155387;23;20012;-86
2022/01/03 13:29:59;;;;;;;13.50;3.10;;;11.80;97.00;;;;;;6155596;23;19901;-86
2022/01/03 13:32:26;;;;;;;;;;;11.70;97.00;;;;;;6132806;23;20076;-86
2022/01/03 13:34:53;;;;;;;9.80;2.47;;;11.70;96.80;;;;;;6156999;23;19901;-86
2022/01/03 13:37:22;;;;;;;11.48;3.30;;;11.70;96.90;;;;;;6160414;23;20428;-85
2022/01/03 13:39:50;;;;;;;12.55;3.55;;;11.70;96.90;;;;;;6183346;23;19993;-86
2022/01/03 13:42:28;;;;;;;11.30;2.60;;;11.60;96.90;;;;;;6183888;23;20012;-86
2022/01/03 13:50:08;;;;;;;13.90;3.13;;;11.70;96.90;;;;;;6158913;23;20021;-86
2022/01/03 13:52:42;;;;;;;11.40;2.53;;;11.70;96.90;;;;;;6156577;23;20009;-87
2022/01/03 13:55:18;;;;;;;10.25;2.83;;;11.70;96.90;;;;;;6132810;23;20432;-86
2022/01/03 13:58:16;;;;;;;10.55;3.08;;;11.70;96.90;;;;;;6156015;23;20056;-87
2022/01/03 14:01:01;;;;;;;10.85;2.80;;;11.70;97.00;;;;;;6137260;23;20009;-86
2022/01/03 14:03:53;;;;;;;9.57;2.85;;;11.70;96.90;;;;;;6156458;23;20328;-86
2022/01/03 14:06:24;;;;;;;10.25;2.60;;;11.60;96.90;;;;;;6156244;23;20312;-85
2022/01/03 14:08:53;;;;;;;10.73;3.15;;;11.60;96.90;;;;;;6155515;23;20028;-86
2022/01/03 14:11:24;;;;;;;9.40;2.33;;;11.70;96.90;;;;;;6155679;23;20011;-87